A- A+ FrançaisEnglishEspañol中国

Services sur Internet Soldes sur Internet Des idées de cadeaux Météo Météo aéro

La météo à : Autours de vous Tarbes-Lourdes-PyrénéesPontoise-Cormeilles-En-VexinChateauroux-Deols Paris-Orly

manche à air

La météo aéronautique pour les pilotes, la préparation du vol avec les METAR (METeorological Aerodrome Report, message d'observation des conditions météorologiques pour l'aviation) et Les TAF (Terminal Aerodrome Forecast : message de prévision à court terme des conditions météorologiques pour l'aviation). Et les autres ressources comme les VAC (Visual Approch Chart) et les NOTAM (Notice To Airman) pour préprer les vols.

Aéroport Slave Lake (Canada) / OACI CYZH/ IATA YZH

L'altitude de l'aéroport Slave Lake est de 583 m = 1913 ft. Il est situé à proximité de Slave Lake (Canada). La météo générale à 5 jours est disponible pour Slave Lake situé à 1.2 km.

METAR de l'aéroport Slave Lake - CYZH

CYZH 230025Z AUTO 27017G23KT 180V330 3SM -RA BR BKN009 OVC012 03/03 A2982 RMK SLP123

Décodage du METAR de l'aéroport Slave Lake (CA)

METAR émis par CYZH le mercredi 23 octobre 2019 à 00:25 heure TU. C'est un METAR généré automatiquement. Attention ce METAR est obsolète car il a été émis il y a 1 heure et 34 minutes.

La visibilité est de 4.8 km = 3 sm.

La température est de 3°C = 37 °F et le point rosée est de 3°C = 37 °F . Ce qui correspond à 100% d'humidité relative.

Le QNH est de 1010 hPa = 29.83 inHg

Vent de 17 kt = 31 km/h avec des rafales à 23 kt = 43 km/h, orienté à 270°.

Nuages : Couverture nuageuse fragmentée à 900 ft = 270 mètres. Couverture nuageuse soudée à 1200 ft = 370 mètres.

-RA BR

RMK SLP123

TAF de l'aéroport Slave Lake - CYZH

CYZH 150038Z 1501/1513 28008KT P6SM OVC015 BECMG 1505/1507 12008KT FM150700 12008KT P6SM OVC008 TEMPO 1507/1513 3SM BR OVC006 RMK FCST BASED ON AUTO OBS. NXT FCST BY 150700Z

CYZH 150038Z 1501/1513 28008KT P6SM couverture nuageuse soudée à 015 devenant 1505/1507 12008KT FM150700 12008KT P6SM couverture nuageuse soudée à 008 temporairement 1507/1513 3SM brume couverture nuageuse soudée à 006 remarques trombe ST BASED ON AUTO OBS. NXT trombe ST BY 150700Z

Aéroport à proximité de Slave Lake

Météo générale à 5 jours à Slave Lake (1.2 km)Aéroport High Prairie (108 km)Aéroport Athabasca (117 km)Aéroport Whitecourt (143 km)Aéroport Lac La Bitche (184 km)Aéroport Edmonton Villeneuve (190 km)Aéroport Peace River (197 km)

Vue aérienne de l'aéroport Slave Lake

NOTAM de l'aéroport Slave Lake

Les NOTAM sont fournis sans aucune garantie de leur actualité. Le pilote est le seul responsable de la vérification de sa validité avant de l'utiliser opérationnellement pour préparer un vol ou l'utiliser lors de sa navigation.

Pas de NOTAM

Sources des données